Time;durP1;ratioP1;P1;durP2;ratioP2;P2;SDS_P1;SDS_P2;PMS_P1;PMS_P2;Temp;Humidity;BMP_temperature;BMP_pressure;BME280_temperature;BME280_humidity;BME280_pressure;Samples;Min_cycle;Max_cycle;Signal;HPM_P1;HPM_P2
2024/02/14 00:00:15;;;;;;;144.90;70.85;;;;;;;;;;5025008;28;20211;-51
2024/02/14 00:02:42;;;;;;;118.47;55.25;;;;;;;;;;5024920;28;20086;-49
2024/02/14 00:05:10;;;;;;;90.55;41.63;;;;;;;;;;5024937;28;20045;-53
2024/02/14 00:07:40;;;;;;;140.02;64.97;;;;;;;;;;5024143;28;20029;-52
2024/02/14 00:10:07;;;;;;;102.40;49.83;;;;;;;;;;5024890;28;20030;-56
2024/02/14 00:12:34;;;;;;;127.28;53.90;;;;;;;;;;5024805;28;20054;-54
2024/02/14 00:15:03;;;;;;;137.70;61.50;;;;;;;;;;5024721;28;20021;-52
2024/02/14 00:17:30;;;;;;;76.25;39.30;;;;;;;;;;5024186;28;20055;-51
2024/02/14 00:19:56;;;;;;;52.70;27.90;;;;;;;;;;5020671;28;20085;-52
2024/02/14 00:22:24;;;;;;;71.82;40.10;;;;;;;;;;5024511;28;20033;-55
2024/02/14 00:24:50;;;;;;;76.82;43.92;;;;;;;;;;5024616;28;20042;-47
2024/02/14 00:27:17;;;;;;;65.10;36.42;;;;;;;;;;5024587;28;20014;-50
2024/02/14 00:29:45;;;;;;;114.55;58.28;;;;;;;;;;5024718;28;20238;-53
2024/02/14 00:32:15;;;;;;;74.30;41.33;;;;;;;;;;5024795;28;20026;-51
2024/02/14 00:34:42;;;;;;;77.22;41.92;;;;;;;;;;5023293;28;20029;-51
2024/02/14 00:37:08;;;;;;;50.83;29.55;;;;;;;;;;5023948;28;20017;-50
2024/02/14 00:39:35;;;;;;;175.82;107.97;;;;;;;;;;5024869;28;20089;-54
2024/02/14 00:42:02;;;;;;;167.30;88.82;;;;;;;;;;5024350;28;20314;-52
2024/02/14 00:44:29;;;;;;;184.35;92.22;;;;;;;;;;5024868;28;20033;-53
2024/02/14 00:46:59;;;;;;;69.10;34.53;;;;;;;;;;5022887;28;20085;-52
2024/02/14 00:49:26;;;;;;;60.72;30.75;;;;;;;;;;5024705;28;20097;-59
2024/02/14 00:51:52;;;;;;;111.97;53.95;;;;;;;;;;5023635;28;20037;-60
2024/02/14 00:54:19;;;;;;;122.40;53.35;;;;;;;;;;5024485;28;20072;-55
2024/02/14 00:56:46;;;;;;;87.05;38.25;;;;;;;;;;5023195;28;20067;-54
2024/02/14 00:59:13;;;;;;;126.53;57.47;;;;;;;;;;5024252;28;20297;-56
2024/02/14 01:01:39;;;;;;;75.55;35.00;;;;;;;;;;5024038;28;20042;-56
2024/02/14 01:04:07;;;;;;;85.50;37.00;;;;;;;;;;5024098;28;20046;-51
2024/02/14 01:06:34;;;;;;;88.72;40.97;;;;;;;;;;5023615;28;20037;-53
2024/02/14 01:09:00;;;;;;;80.47;37.20;;;;;;;;;;5024013;28;20041;-53
2024/02/14 01:11:28;;;;;;;48.42;21.38;;;;;;;;;;5023197;28;20053;-49
2024/02/14 01:13:55;;;;;;;73.45;21.25;;;;;;;;;;5017460;28;20030;-51
2024/02/14 01:16:21;;;;;;;48.65;17.75;;;;;;;;;;5013156;28;20036;-52
2024/02/14 01:18:48;;;;;;;33.63;15.02;;;;;;;;;;5019250;28;20085;-45
2024/02/14 01:21:15;;;;;;;36.78;13.48;;;;;;;;;;5003900;28;20029;-52
2024/02/14 01:23:41;;;;;;;29.15;12.90;;;;;;;;;;5019702;28;20030;-49
2024/02/14 01:26:08;;;;;;;29.83;12.30;;;;;;;;;;5023081;28;20033;-49
2024/02/14 01:28:34;;;;;;;27.98;13.02;;;;;;;;;;5023800;28;20033;-49
2024/02/14 01:31:01;;;;;;;26.63;12.25;;;;;;;;;;5023583;28;20022;-50
2024/02/14 01:33:30;;;;;;;27.45;11.68;;;;;;;;;;5023440;28;20030;-47
2024/02/14 01:35:57;;;;;;;24.48;12.27;;;;;;;;;;5022938;28;20314;-48
2024/02/14 01:38:24;;;;;;;25.63;11.95;;;;;;;;;;5022500;28;20205;-48
2024/02/14 01:40:51;;;;;;;23.23;11.15;;;;;;;;;;5022951;28;20025;-51
2024/02/14 01:43:18;;;;;;;25.40;11.90;;;;;;;;;;5023998;28;20290;-49
2024/02/14 01:45:45;;;;;;;22.05;11.32;;;;;;;;;;5023513;28;20025;-51
2024/02/14 01:48:12;;;;;;;24.88;12.02;;;;;;;;;;5023968;28;20033;-49
2024/02/14 01:50:40;;;;;;;24.05;12.27;;;;;;;;;;5023731;28;20337;-48
2024/02/14 01:53:07;;;;;;;31.13;12.45;;;;;;;;;;5022229;28;20290;-47
2024/02/14 01:55:34;;;;;;;20.33;11.40;;;;;;;;;;5023210;28;20032;-50
2024/02/14 01:58:04;;;;;;;24.10;11.05;;;;;;;;;;5024497;28;20053;-59
2024/02/14 02:00:32;;;;;;;26.20;12.30;;;;;;;;;;5026020;28;20184;-44
2024/02/14 02:02:59;;;;;;;26.08;11.90;;;;;;;;;;5026506;28;20032;-46
2024/02/14 02:05:25;;;;;;;24.13;11.52;;;;;;;;;;5025967;28;20054;-54
2024/02/14 02:07:53;;;;;;;36.45;12.38;;;;;;;;;;5026108;28;20101;-53
2024/02/14 02:10:22;;;;;;;31.27;12.57;;;;;;;;;;5027082;28;20026;-51
2024/02/14 02:12:50;;;;;;;26.08;11.77;;;;;;;;;;5027191;28;20030;-54
2024/02/14 02:15:17;;;;;;;26.67;12.68;;;;;;;;;;5026751;28;20060;-47
2024/02/14 02:17:45;;;;;;;24.73;12.20;;;;;;;;;;5026884;28;20018;-49
2024/02/14 02:20:12;;;;;;;23.42;11.75;;;;;;;;;;5026341;28;20030;-46
2024/02/14 02:22:42;;;;;;;24.60;11.77;;;;;;;;;;5026871;28;20049;-45
2024/02/14 02:25:09;;;;;;;26.02;12.10;;;;;;;;;;5026270;28;20033;-49
2024/02/14 02:27:37;;;;;;;21.13;11.18;;;;;;;;;;5026813;28;20033;-52
2024/02/14 02:30:05;;;;;;;23.42;11.23;;;;;;;;;;5025403;28;20092;-51
2024/02/14 02:32:32;;;;;;;22.50;12.13;;;;;;;;;;5025429;28;20021;-54
2024/02/14 02:34:59;;;;;;;25.15;12.00;;;;;;;;;;5026674;28;20057;-47
2024/02/14 02:37:28;;;;;;;25.27;11.95;;;;;;;;;;5025161;28;20287;-48
2024/02/14 02:39:55;;;;;;;23.55;11.88;;;;;;;;;;5026483;28;20026;-54
2024/02/14 02:42:22;;;;;;;26.60;12.00;;;;;;;;;;5026354;28;20014;-51
2024/02/14 02:44:50;;;;;;;21.60;11.38;;;;;;;;;;5026650;28;20263;-46
2024/02/14 02:47:17;;;;;;;20.85;11.30;;;;;;;;;;5025250;28;20022;-51
2024/02/14 02:49:44;;;;;;;24.58;11.68;;;;;;;;;;5026345;28;20049;-52
2024/02/14 02:52:14;;;;;;;20.77;11.20;;;;;;;;;;5026391;28;20009;-45
2024/02/14 02:54:43;;;;;;;20.52;11.77;;;;;;;;;;5026218;28;20041;-55
2024/02/14 02:57:10;;;;;;;25.38;11.57;;;;;;;;;;5025443;28;20085;-55
2024/02/14 02:59:37;;;;;;;25.77;10.98;;;;;;;;;;5026822;28;20092;-56
2024/02/14 03:02:08;;;;;;;19.63;11.15;;;;;;;;;;5025340;28;20101;-56
2024/02/14 03:04:35;;;;;;;20.75;10.90;;;;;;;;;;5025860;28;20065;-53
2024/02/14 03:07:06;;;;;;;22.10;10.57;;;;;;;;;;5020276;28;20085;-54
2024/02/14 03:09:33;;;;;;;18.90;10.88;;;;;;;;;;5015340;28;20202;-55
2024/02/14 03:12:00;;;;;;;18.15;10.43;;;;;;;;;;5016702;28;20034;-59
2024/02/14 03:14:32;;;;;;;24.20;11.07;;;;;;;;;;5015075;28;20030;-57
2024/02/14 03:16:59;;;;;;;;;;;;;;;;;;5015077;28;20250;-54
2024/02/14 03:19:27;;;;;;;24.25;11.05;;;;;;;;;;5016794;28;19939;-55
2024/02/14 03:21:56;;;;;;;22.50;10.93;;;;;;;;;;5015662;28;20045;-54
2024/02/14 03:24:26;;;;;;;19.30;10.80;;;;;;;;;;5014963;28;20053;-54
2024/02/14 03:26:53;;;;;;;20.92;10.15;;;;;;;;;;5015233;28;20022;-57
2024/02/14 03:29:20;;;;;;;23.77;10.27;;;;;;;;;;5021186;28;20153;-50
2024/02/14 03:31:47;;;;;;;25.42;10.55;;;;;;;;;;5015939;28;20045;-54
2024/02/14 03:34:14;;;;;;;21.10;10.20;;;;;;;;;;5016953;28;20202;-51
2024/02/14 03:36:40;;;;;;;18.58;10.27;;;;;;;;;;5017222;28;20076;-52
2024/02/14 03:39:08;;;;;;;15.93;10.02;;;;;;;;;;5022633;28;20020;-57
2024/02/14 03:41:35;;;;;;;22.58;10.77;;;;;;;;;;5015461;28;20093;-54
2024/02/14 03:44:03;;;;;;;22.33;10.23;;;;;;;;;;5016556;28;20022;-51
2024/02/14 03:46:30;;;;;;;19.42;10.77;;;;;;;;;;5013587;28;20034;-54
2024/02/14 03:48:56;;;;;;;19.02;10.52;;;;;;;;;;5025198;28;20026;-59
2024/02/14 03:51:26;;;;;;;16.92;10.27;;;;;;;;;;5020050;28;20373;-56
2024/02/14 03:53:52;;;;;;;21.73;10.52;;;;;;;;;;5016214;28;20022;-56
2024/02/14 03:56:19;;;;;;;19.63;10.10;;;;;;;;;;5014512;28;20014;-56
2024/02/14 03:58:46;;;;;;;18.90;9.85;;;;;;;;;;5015915;28;20068;-53
2024/02/14 04:01:13;;;;;;;23.13;10.50;;;;;;;;;;5014613;28;20041;-54
2024/02/14 04:03:40;;;;;;;19.38;10.77;;;;;;;;;;5013845;28;20049;-55
2024/02/14 04:06:07;;;;;;;20.33;9.80;;;;;;;;;;5015793;28;20082;-55
2024/02/14 04:08:33;;;;;;;20.15;9.85;;;;;;;;;;5015156;28;20082;-53
2024/02/14 04:11:00;;;;;;;19.25;9.57;;;;;;;;;;5013770;28;20029;-56
2024/02/14 04:13:26;;;;;;;20.50;10.55;;;;;;;;;;5015719;28;20202;-55
2024/02/14 04:15:53;;;;;;;20.15;10.50;;;;;;;;;;5015920;28;20026;-53
2024/02/14 04:18:19;;;;;;;20.58;10.38;;;;;;;;;;5024765;28;20064;-54
2024/02/14 04:20:46;;;;;;;17.25;10.07;;;;;;;;;;5024681;28;20049;-55
2024/02/14 04:23:13;;;;;;;20.80;10.30;;;;;;;;;;5020717;28;20022;-56
2024/02/14 04:25:40;;;;;;;19.55;9.98;;;;;;;;;;5024571;28;20026;-53
2024/02/14 04:28:06;;;;;;;20.85;9.98;;;;;;;;;;5024758;28;20017;-55
2024/02/14 04:30:33;;;;;;;19.55;10.25;;;;;;;;;;5024523;28;20046;-53
2024/02/14 04:33:00;;;;;;;18.42;10.70;;;;;;;;;;5024387;28;20092;-53
2024/02/14 04:35:27;;;;;;;21.15;9.57;;;;;;;;;;5024775;28;20032;-52
2024/02/14 04:37:53;;;;;;;17.13;9.73;;;;;;;;;;5024432;28;20041;-51
2024/02/14 04:40:20;;;;;;;20.30;10.60;;;;;;;;;;5024511;28;20238;-55
2024/02/14 04:42:47;;;;;;;21.23;10.15;;;;;;;;;;5024268;28;20101;-56
2024/02/14 04:45:14;;;;;;;16.58;10.45;;;;;;;;;;5024337;28;20025;-56
2024/02/14 04:47:43;;;;;;;20.08;10.50;;;;;;;;;;5024229;28;20033;-55
2024/02/14 04:50:11;;;;;;;19.70;9.85;;;;;;;;;;5024440;28;20037;-55
2024/02/14 04:52:38;;;;;;;24.13;10.10;;;;;;;;;;5024208;28;20033;-56
2024/02/14 04:55:05;;;;;;;24.13;10.75;;;;;;;;;;5024060;28;20081;-54
2024/02/14 04:57:35;;;;;;;17.70;10.15;;;;;;;;;;5023508;28;20037;-62
2024/02/14 05:00:04;;;;;;;19.60;10.02;;;;;;;;;;5024118;28;20056;-53
2024/02/14 05:02:31;;;;;;;18.40;10.25;;;;;;;;;;5024036;28;20021;-59
2024/02/14 05:04:58;;;;;;;21.35;10.45;;;;;;;;;;5024050;28;20384;-56
2024/02/14 05:07:25;;;;;;;17.10;9.98;;;;;;;;;;5024506;28;20071;-58
2024/02/14 05:09:52;;;;;;;17.90;10.02;;;;;;;;;;5023989;28;20265;-58
2024/02/14 05:12:19;;;;;;;19.52;10.05;;;;;;;;;;5024036;28;20044;-57
2024/02/14 05:14:46;;;;;;;19.83;10.70;;;;;;;;;;5023958;28;20318;-56
2024/02/14 05:17:12;;;;;;;21.05;11.05;;;;;;;;;;5024003;28;20210;-57
2024/02/14 05:19:39;;;;;;;19.38;9.98;;;;;;;;;;5024046;28;20030;-53
2024/02/14 05:22:05;;;;;;;19.70;10.68;;;;;;;;;;5023949;28;20353;-54
2024/02/14 05:24:32;;;;;;;18.65;10.40;;;;;;;;;;5024346;28;20306;-55
2024/02/14 05:26:59;;;;;;;23.17;10.90;;;;;;;;;;5023918;28;20322;-62
2024/02/14 05:29:25;;;;;;;18.50;9.45;;;;;;;;;;5024307;28;20034;-54
2024/02/14 05:31:55;;;;;;;18.33;9.63;;;;;;;;;;5023360;28;20199;-55
2024/02/14 05:34:22;;;;;;;19.63;10.80;;;;;;;;;;5027299;28;20026;-57
2024/02/14 05:36:48;;;;;;;23.80;10.45;;;;;;;;;;5027889;28;20269;-57
2024/02/14 05:39:15;;;;;;;19.67;10.60;;;;;;;;;;5028019;28;20025;-54
2024/02/14 05:41:42;;;;;;;16.90;10.23;;;;;;;;;;5027649;28;20033;-54
2024/02/14 05:44:09;;;;;;;16.88;9.40;;;;;;;;;;5028045;28;20026;-55
2024/02/14 05:46:35;;;;;;;17.23;9.38;;;;;;;;;;5027520;28;20026;-55
2024/02/14 05:49:02;;;;;;;17.63;10.23;;;;;;;;;;5027960;28;20048;-55
2024/02/14 05:51:29;;;;;;;20.08;10.70;;;;;;;;;;5027726;28;20217;-54
2024/02/14 05:53:55;;;;;;;18.67;10.00;;;;;;;;;;5027776;28;20068;-52
2024/02/14 05:56:22;;;;;;;19.85;10.43;;;;;;;;;;5027449;28;20032;-55
2024/02/14 05:58:48;;;;;;;17.55;10.10;;;;;;;;;;5027774;28;20052;-53
2024/02/14 06:01:15;;;;;;;17.15;10.10;;;;;;;;;;5027539;28;20022;-52
2024/02/14 06:03:44;;;;;;;15.23;9.65;;;;;;;;;;5027255;28;20050;-55
2024/02/14 06:06:11;;;;;;;17.45;10.25;;;;;;;;;;5027506;28;20045;-56
2024/02/14 06:08:37;;;;;;;19.20;10.98;;;;;;;;;;5027849;28;20033;-52
2024/02/14 06:11:04;;;;;;;17.27;10.15;;;;;;;;;;5027095;28;20037;-53
2024/02/14 06:13:31;;;;;;;19.63;10.65;;;;;;;;;;5027425;28;20336;-59
2024/02/14 06:15:57;;;;;;;18.75;10.55;;;;;;;;;;5027388;28;20034;-54
2024/02/14 06:18:24;;;;;;;18.27;10.65;;;;;;;;;;5027120;28;20065;-55
2024/02/14 06:20:51;;;;;;;18.02;9.90;;;;;;;;;;5027391;28;20203;-55
2024/02/14 06:23:17;;;;;;;20.98;10.73;;;;;;;;;;5027229;28;20029;-55
2024/02/14 06:25:44;;;;;;;18.52;10.73;;;;;;;;;;5026767;28;20049;-54
2024/02/14 06:28:11;;;;;;;20.38;10.40;;;;;;;;;;5027058;28;20026;-54
2024/02/14 06:30:37;;;;;;;20.63;10.68;;;;;;;;;;5026936;28;20026;-54
2024/02/14 06:33:04;;;;;;;21.23;10.43;;;;;;;;;;5026718;28;20080;-55
2024/02/14 06:35:31;;;;;;;17.77;10.88;;;;;;;;;;5026856;28;20069;-51
2024/02/14 06:37:57;;;;;;;19.90;10.73;;;;;;;;;;5026962;28;20022;-58
2024/02/14 06:40:24;;;;;;;18.77;10.93;;;;;;;;;;5026572;28;20034;-56
2024/02/14 06:42:51;;;;;;;21.05;10.60;;;;;;;;;;5026656;28;20036;-54
2024/02/14 06:45:18;;;;;;;20.80;10.85;;;;;;;;;;5025511;28;20085;-55
2024/02/14 06:47:44;;;;;;;18.63;10.77;;;;;;;;;;5026601;28;20032;-59
2024/02/14 06:50:11;;;;;;;18.90;10.23;;;;;;;;;;5026520;28;20093;-56
2024/02/14 06:52:37;;;;;;;17.35;10.00;;;;;;;;;;5026352;28;20197;-54
2024/02/14 06:55:04;;;;;;;23.02;10.15;;;;;;;;;;5026514;28;20022;-56
2024/02/14 06:57:31;;;;;;;17.33;9.80;;;;;;;;;;5026352;28;20084;-56
2024/02/14 06:59:57;;;;;;;16.75;10.40;;;;;;;;;;5026628;28;20298;-57
2024/02/14 07:02:27;;;;;;;17.25;10.07;;;;;;;;;;5026189;28;20024;-55
2024/02/14 07:04:54;;;;;;;17.48;10.73;;;;;;;;;;5025924;28;20393;-55
2024/02/14 07:07:21;;;;;;;20.90;10.02;;;;;;;;;;5026160;28;20026;-53
2024/02/14 07:09:48;;;;;;;16.00;9.88;;;;;;;;;;5025900;28;20030;-57
2024/02/14 07:12:15;;;;;;;17.38;9.88;;;;;;;;;;5026575;28;20082;-57
2024/02/14 07:14:41;;;;;;;18.98;10.23;;;;;;;;;;5026207;28;20033;-58
2024/02/14 07:17:08;;;;;;;15.63;9.50;;;;;;;;;;5025764;28;20214;-53
2024/02/14 07:19:34;;;;;;;16.05;9.32;;;;;;;;;;5026392;28;20024;-56
2024/02/14 07:22:01;;;;;;;16.40;9.43;;;;;;;;;;5026168;28;20053;-55
2024/02/14 07:24:28;;;;;;;18.17;10.38;;;;;;;;;;5026262;28;20037;-56
2024/02/14 07:26:54;;;;;;;19.75;10.27;;;;;;;;;;5026175;28;20358;-56
2024/02/14 07:29:21;;;;;;;18.23;9.60;;;;;;;;;;5026375;28;20025;-53
2024/02/14 07:31:47;;;;;;;14.57;9.90;;;;;;;;;;5025784;28;20030;-55
2024/02/14 07:34:14;;;;;;;18.92;10.18;;;;;;;;;;5025965;28;20025;-55
2024/02/14 07:36:45;;;;;;;16.02;9.57;;;;;;;;;;5025679;28;20064;-56
2024/02/14 07:39:12;;;;;;;17.67;10.43;;;;;;;;;;5025884;28;20021;-55
2024/02/14 07:41:39;;;;;;;19.67;9.98;;;;;;;;;;5025612;28;20034;-57
2024/02/14 07:44:06;;;;;;;18.15;9.77;;;;;;;;;;5025800;28;20018;-55
2024/02/14 07:46:33;;;;;;;15.30;9.65;;;;;;;;;;5025478;28;20060;-53
2024/02/14 07:48:59;;;;;;;16.52;9.50;;;;;;;;;;5025874;28;20014;-56
2024/02/14 07:51:27;;;;;;;17.27;9.48;;;;;;;;;;5025782;28;20041;-56
2024/02/14 07:53:54;;;;;;;20.58;10.02;;;;;;;;;;5025641;28;20076;-54
2024/02/14 07:56:21;;;;;;;16.15;9.55;;;;;;;;;;5024934;28;20037;-57
2024/02/14 07:58:49;;;;;;;18.17;10.00;;;;;;;;;;5025692;28;20332;-60
2024/02/14 08:01:16;;;;;;;16.65;9.52;;;;;;;;;;5025184;28;20029;-58
2024/02/14 08:03:43;;;;;;;21.65;9.60;;;;;;;;;;5025451;28;20305;-56
2024/02/14 08:06:09;;;;;;;19.08;9.30;;;;;;;;;;5025457;28;20034;-56
2024/02/14 08:08:36;;;;;;;16.92;9.25;;;;;;;;;;5025281;28;20026;-57
2024/02/14 08:11:02;;;;;;;16.48;10.07;;;;;;;;;;5024840;28;20018;-57
2024/02/14 08:13:29;;;;;;;15.73;9.23;;;;;;;;;;5025213;28;20083;-54
2024/02/14 08:15:56;;;;;;;19.05;10.25;;;;;;;;;;5025075;28;20337;-55
2024/02/14 08:18:23;;;;;;;15.10;9.25;;;;;;;;;;5024940;28;20030;-56
2024/02/14 08:20:49;;;;;;;19.77;9.25;;;;;;;;;;5024739;28;20022;-57
2024/02/14 08:23:16;;;;;;;17.65;10.10;;;;;;;;;;5025084;28;20202;-55
2024/02/14 08:25:43;;;;;;;15.48;9.85;;;;;;;;;;5024868;28;20034;-57
2024/02/14 08:28:10;;;;;;;17.05;9.75;;;;;;;;;;5024903;28;20084;-53
2024/02/14 08:30:37;;;;;;;17.80;10.00;;;;;;;;;;5025111;28;20056;-57
2024/02/14 08:33:04;;;;;;;20.05;9.63;;;;;;;;;;5024602;28;20036;-58
2024/02/14 08:35:31;;;;;;;15.43;9.10;;;;;;;;;;5024687;28;20022;-58
2024/02/14 08:37:57;;;;;;;16.10;9.23;;;;;;;;;;5024630;28;20078;-57
2024/02/14 08:40:24;;;;;;;16.70;9.93;;;;;;;;;;5024437;28;20022;-56
2024/02/14 08:42:51;;;;;;;18.52;9.60;;;;;;;;;;5024477;28;20045;-56
2024/02/14 08:45:18;;;;;;;21.30;9.50;;;;;;;;;;5024504;28;20048;-58
2024/02/14 08:47:45;;;;;;;15.60;9.60;;;;;;;;;;5024389;28;20080;-55
2024/02/14 08:50:11;;;;;;;18.60;9.23;;;;;;;;;;5024358;28;20026;-56
2024/02/14 08:52:38;;;;;;;16.40;8.98;;;;;;;;;;5024240;28;20044;-55
2024/02/14 08:55:08;;;;;;;15.40;9.85;;;;;;;;;;5024180;28;20026;-57
2024/02/14 08:57:35;;;;;;;16.92;10.07;;;;;;;;;;5024311;28;20048;-56
2024/02/14 09:00:03;;;;;;;16.63;9.13;;;;;;;;;;5024276;28;20212;-57
2024/02/14 09:02:29;;;;;;;14.75;9.25;;;;;;;;;;5024102;28;20089;-55
2024/02/14 09:04:56;;;;;;;18.00;9.68;;;;;;;;;;5024013;28;20049;-54
2024/02/14 09:07:22;;;;;;;16.25;9.52;;;;;;;;;;5023484;28;20021;-55
2024/02/14 09:09:49;;;;;;;20.75;9.88;;;;;;;;;;5024323;28;20024;-55
2024/02/14 09:12:15;;;;;;;16.58;9.93;;;;;;;;;;5024201;28;20060;-55
2024/02/14 09:14:43;;;;;;;17.02;9.27;;;;;;;;;;5024050;28;20026;-56
2024/02/14 09:17:10;;;;;;;17.23;9.60;;;;;;;;;;5024472;28;20014;-57
2024/02/14 09:19:37;;;;;;;20.10;10.38;;;;;;;;;;5024582;28;20050;-56
2024/02/14 09:22:06;;;;;;;16.58;9.40;;;;;;;;;;5023955;28;20022;-55
2024/02/14 09:24:33;;;;;;;20.45;10.75;;;;;;;;;;5024295;28;20179;-55
2024/02/14 09:27:02;;;;;;;17.13;9.52;;;;;;;;;;5024135;28;20250;-56
2024/02/14 09:29:29;;;;;;;19.67;9.88;;;;;;;;;;5024378;28;20033;-54
2024/02/14 09:31:55;;;;;;;22.08;10.40;;;;;;;;;;5023851;28;20092;-58
2024/02/14 09:34:22;;;;;;;18.90;10.68;;;;;;;;;;5024710;28;20030;-54
2024/02/14 09:36:49;;;;;;;18.85;10.13;;;;;;;;;;5024002;28;20041;-57
2024/02/14 09:39:17;;;;;;;17.90;10.27;;;;;;;;;;5024111;28;20028;-56
2024/02/14 09:41:46;;;;;;;15.60;9.57;;;;;;;;;;5023847;28;20025;-53
2024/02/14 09:44:13;;;;;;;15.43;9.75;;;;;;;;;;5024174;28;20063;-56
2024/02/14 09:46:40;;;;;;;17.35;9.30;;;;;;;;;;5023575;28;20021;-53
2024/02/14 09:49:07;;;;;;;17.77;9.70;;;;;;;;;;5024124;28;20029;-56
2024/02/14 09:51:34;;;;;;;16.67;8.80;;;;;;;;;;5023648;28;20096;-55
2024/02/14 09:54:01;;;;;;;18.20;10.02;;;;;;;;;;5023875;28;20026;-57
2024/02/14 09:56:28;;;;;;;19.45;9.43;;;;;;;;;;5023829;28;20028;-56
2024/02/14 09:58:56;;;;;;;16.38;9.27;;;;;;;;;;5024023;28;20049;-55
2024/02/14 10:01:23;;;;;;;17.55;9.65;;;;;;;;;;5023458;28;20040;-57
2024/02/14 10:03:54;;;;;;;19.00;10.15;;;;;;;;;;5023467;28;20084;-53
2024/02/14 10:06:21;;;;;;;19.95;9.15;;;;;;;;;;5023686;28;20330;-58
2024/02/14 10:08:54;;;;;;;24.02;9.55;;;;;;;;;;5023337;28;20033;-55
2024/02/14 10:11:21;;;;;;;20.60;10.00;;;;;;;;;;5023635;28;20030;-56
2024/02/14 10:13:50;;;;;;;16.13;9.48;;;;;;;;;;5023680;28;20302;-55
2024/02/14 10:16:18;;;;;;;18.00;9.70;;;;;;;;;;5023550;28;20021;-56
2024/02/14 10:18:46;;;;;;;18.85;9.82;;;;;;;;;;5024592;28;20176;-59
2024/02/14 10:21:19;;;;;;;17.40;9.80;;;;;;;;;;5027025;28;20021;-57
2024/02/14 10:23:50;;;;;;;18.15;9.65;;;;;;;;;;5027193;28;20310;-54
2024/02/14 10:26:17;;;;;;;17.80;9.65;;;;;;;;;;5026870;28;20034;-50
2024/02/14 10:28:44;;;;;;;15.93;9.68;;;;;;;;;;5027129;28;20096;-55
2024/02/14 10:31:14;;;;;;;17.15;9.48;;;;;;;;;;5026977;28;20021;-54
2024/02/14 10:33:40;;;;;;;18.77;10.05;;;;;;;;;;5026933;28;20036;-53
2024/02/14 10:36:08;;;;;;;19.33;9.02;;;;;;;;;;5026889;28;20318;-56
2024/02/14 10:38:35;;;;;;;20.13;10.00;;;;;;;;;;5026978;28;20038;-57
2024/02/14 10:41:02;;;;;;;14.80;9.50;;;;;;;;;;5026715;28;20274;-55
2024/02/14 10:43:29;;;;;;;20.27;9.20;;;;;;;;;;5026831;28;20241;-53
2024/02/14 10:45:58;;;;;;;20.58;10.10;;;;;;;;;;5026838;28;20033;-57
2024/02/14 10:48:25;;;;;;;17.35;9.25;;;;;;;;;;5026722;28;20089;-58
2024/02/14 10:50:56;;;;;;;20.88;9.82;;;;;;;;;;5026365;28;20093;-58
2024/02/14 10:53:23;;;;;;;18.60;9.45;;;;;;;;;;5026692;28;20064;-56
2024/02/14 10:55:50;;;;;;;18.55;9.80;;;;;;;;;;5026256;28;20030;-54
2024/02/14 10:58:17;;;;;;;24.23;10.57;;;;;;;;;;5026454;28;20018;-56
2024/02/14 11:00:45;;;;;;;20.27;9.65;;;;;;;;;;5026489;28;20022;-58
2024/02/14 11:03:12;;;;;;;17.67;10.07;;;;;;;;;;5026503;28;20026;-58
2024/02/14 11:05:49;;;;;;;24.80;10.82;;;;;;;;;;5025997;28;20037;-55
2024/02/14 11:08:16;;;;;;;22.25;10.32;;;;;;;;;;5026299;28;20265;-58
2024/02/14 11:10:43;;;;;;;20.45;10.20;;;;;;;;;;5026199;28;20030;-56
2024/02/14 11:13:16;;;;;;;29.55;11.10;;;;;;;;;;5025072;28;20036;-53
2024/02/14 11:15:46;;;;;;;23.40;10.77;;;;;;;;;;5024265;28;20017;-56
2024/02/14 11:18:13;;;;;;;28.77;11.40;;;;;;;;;;5026036;28;20048;-58
2024/02/14 11:20:40;;;;;;;23.35;10.15;;;;;;;;;;5026056;28;20025;-56
2024/02/14 11:23:11;;;;;;;25.33;10.98;;;;;;;;;;5026136;28;20301;-56
2024/02/14 11:25:38;;;;;;;24.08;11.30;;;;;;;;;;5025742;28;20050;-51
2024/02/14 11:28:15;;;;;;;23.02;10.95;;;;;;;;;;5025971;28;20025;-52
2024/02/14 11:30:45;;;;;;;24.65;11.18;;;;;;;;;;5025213;28;20301;-50
2024/02/14 11:33:21;;;;;;;20.63;10.70;;;;;;;;;;5025892;28;20042;-51
2024/02/14 11:35:53;;;;;;;19.70;11.10;;;;;;;;;;5026005;28;20026;-52
2024/02/14 11:38:20;;;;;;;22.65;11.77;;;;;;;;;;5025907;28;20144;-49
2024/02/14 11:40:46;;;;;;;22.20;10.35;;;;;;;;;;5025961;28;20033;-49
2024/02/14 11:43:14;;;;;;;22.73;11.30;;;;;;;;;;5025903;28;20115;-58
2024/02/14 11:45:41;;;;;;;22.00;10.48;;;;;;;;;;5025298;28;20035;-51
2024/02/14 11:48:14;;;;;;;20.25;11.77;;;;;;;;;;5024828;28;20021;-52
2024/02/14 11:50:41;;;;;;;19.33;10.73;;;;;;;;;;5024920;28;20052;-51
2024/02/14 11:53:09;;;;;;;20.08;10.40;;;;;;;;;;5025262;28;20021;-52
2024/02/14 11:55:37;;;;;;;17.83;10.98;;;;;;;;;;5025489;28;20338;-53
2024/02/14 11:58:08;;;;;;;26.63;11.05;;;;;;;;;;5025477;28;20030;-54
2024/02/14 12:00:35;;;;;;;17.48;10.60;;;;;;;;;;5025171;28;20203;-53
2024/02/14 12:03:02;;;;;;;19.40;10.13;;;;;;;;;;5025158;28;20048;-54
2024/02/14 12:05:29;;;;;;;18.85;10.02;;;;;;;;;;5025109;28;20301;-53
2024/02/14 12:07:56;;;;;;;24.38;10.50;;;;;;;;;;5025708;28;20245;-50
2024/02/14 12:10:22;;;;;;;17.52;10.70;;;;;;;;;;5024953;28;20226;-50
2024/02/14 12:12:50;;;;;;;18.35;10.40;;;;;;;;;;5025032;28;20022;-47
2024/02/14 12:15:17;;;;;;;22.13;10.23;;;;;;;;;;5025211;28;20294;-52
2024/02/14 12:17:45;;;;;;;18.00;10.52;;;;;;;;;;5024939;28;20044;-54
2024/02/14 12:20:13;;;;;;;18.63;9.02;;;;;;;;;;5024888;28;20045;-51
2024/02/14 12:22:41;;;;;;;21.13;9.82;;;;;;;;;;5024894;28;20056;-50
2024/02/14 12:25:11;;;;;;;17.83;10.23;;;;;;;;;;5024953;28;20222;-56
2024/02/14 12:27:41;;;;;;;16.58;9.50;;;;;;;;;;5024771;28;20033;-58
2024/02/14 12:30:08;;;;;;;17.08;9.50;;;;;;;;;;5024797;28;20013;-50
2024/02/14 12:32:34;;;;;;;19.85;9.48;;;;;;;;;;5024581;28;20210;-50
2024/02/14 12:35:01;;;;;;;18.60;9.70;;;;;;;;;;5024534;28;20030;-55
2024/02/14 12:37:27;;;;;;;17.92;9.15;;;;;;;;;;5024564;28;20013;-57
2024/02/14 12:39:55;;;;;;;20.77;9.32;;;;;;;;;;5024630;28;20073;-55
2024/02/14 12:42:25;;;;;;;15.98;9.10;;;;;;;;;;5022254;28;20022;-52
2024/02/14 12:44:52;;;;;;;19.25;9.48;;;;;;;;;;5024298;28;20030;-53
2024/02/14 12:47:21;;;;;;;16.38;8.98;;;;;;;;;;5024021;28;20253;-51
2024/02/14 12:49:49;;;;;;;17.45;9.80;;;;;;;;;;5024397;28;20072;-49
2024/02/14 12:52:16;;;;;;;17.60;9.98;;;;;;;;;;5024045;28;20088;-55
2024/02/14 12:54:42;;;;;;;16.58;9.05;;;;;;;;;;5023868;28;20042;-51
2024/02/14 12:57:09;;;;;;;19.05;9.07;;;;;;;;;;5024210;28;20014;-56
2024/02/14 12:59:36;;;;;;;18.85;9.23;;;;;;;;;;5024812;28;20049;-52
2024/02/14 13:02:06;;;;;;;17.33;9.38;;;;;;;;;;5024579;28;20088;-47
2024/02/14 13:04:32;;;;;;;15.60;9.02;;;;;;;;;;5024080;28;20053;-53
2024/02/14 13:06:59;;;;;;;17.85;9.05;;;;;;;;;;5024495;28;20021;-53
2024/02/14 13:09:26;;;;;;;17.80;9.60;;;;;;;;;;5024583;28;20032;-52
2024/02/14 13:11:53;;;;;;;16.60;9.93;;;;;;;;;;5024033;28;20314;-55
2024/02/14 13:14:19;;;;;;;21.33;9.77;;;;;;;;;;5024598;28;20029;-53
2024/02/14 13:16:46;;;;;;;22.05;9.32;;;;;;;;;;5024055;28;20266;-55
2024/02/14 13:19:12;;;;;;;19.10;10.32;;;;;;;;;;5006621;28;20053;-52
2024/02/14 13:21:40;;;;;;;17.23;9.65;;;;;;;;;;5024044;28;20022;-48
2024/02/14 13:24:08;;;;;;;18.77;9.45;;;;;;;;;;5023954;28;20022;-54
2024/02/14 13:26:34;;;;;;;18.88;9.45;;;;;;;;;;5013723;28;20309;-54
2024/02/14 13:29:01;;;;;;;17.67;9.35;;;;;;;;;;5023346;28;20032;-55
2024/02/14 13:31:28;;;;;;;22.55;9.93;;;;;;;;;;5023698;28;20289;-53
2024/02/14 13:33:54;;;;;;;19.92;10.35;;;;;;;;;;5020643;28;20253;-51
2024/02/14 13:36:23;;;;;;;21.23;10.48;;;;;;;;;;5014381;28;20038;-53
2024/02/14 13:38:50;;;;;;;24.40;10.18;;;;;;;;;;5023348;28;20056;-51
2024/02/14 13:41:17;;;;;;;17.17;9.88;;;;;;;;;;5023562;28;20026;-49
2024/02/14 13:43:44;;;;;;;18.85;10.00;;;;;;;;;;5024203;28;20029;-50
2024/02/14 13:46:10;;;;;;;18.67;10.07;;;;;;;;;;5023661;28;20018;-54
2024/02/14 13:48:37;;;;;;;20.10;10.10;;;;;;;;;;5023867;28;20206;-52
2024/02/14 13:51:04;;;;;;;23.05;13.05;;;;;;;;;;5021595;28;20358;-55
2024/02/14 13:53:31;;;;;;;21.23;11.80;;;;;;;;;;5014868;28;20027;-53
2024/02/14 13:55:57;;;;;;;17.92;11.38;;;;;;;;;;5016445;28;20333;-50
2024/02/14 13:58:24;;;;;;;25.80;11.45;;;;;;;;;;5017494;28;20021;-53
2024/02/14 14:00:50;;;;;;;19.45;10.88;;;;;;;;;;5018074;28;20014;-54
2024/02/14 14:03:17;;;;;;;24.38;11.32;;;;;;;;;;5017331;28;20030;-53
2024/02/14 14:05:44;;;;;;;21.48;11.25;;;;;;;;;;5021337;28;20287;-52
2024/02/14 14:08:10;;;;;;;20.23;10.68;;;;;;;;;;5017951;28;20092;-52
2024/02/14 14:10:37;;;;;;;18.75;10.50;;;;;;;;;;5017778;28;20105;-51
2024/02/14 14:13:03;;;;;;;22.45;11.00;;;;;;;;;;5017508;28;20057;-51
2024/02/14 14:15:32;;;;;;;23.23;11.55;;;;;;;;;;5024422;28;20049;-53
2024/02/14 14:17:59;;;;;;;18.02;10.77;;;;;;;;;;5017205;28;20029;-57
2024/02/14 14:20:25;;;;;;;23.55;10.57;;;;;;;;;;5016335;28;20026;-58